Flight Track Log - Related Links

Times and Time Zones

All times are in EDT time to prevent confusion due to time zone crossing. See the N675MC flight status page for this flight to view local times or setup timezone preferences in your user account.


Time Position Orientation Groundspeed Altitude Reporting Facility
EDT Latitude Longitude Course Direction KTS MPH feet Rate Location/Type
Tue 10:57:10 AM 38.7333 -90.2667 90° East 209 241 3,300  Level Gateway (St. Louis) TRACON
Tue 10:57:51 AM 38.7347 -90.2333 87° East 215 247 4,000 2,176 Climbing Kansas City Center
Tue 10:58:52 AM 38.7456 -90.1183 83° East 250 288 7,000 3,049 Climbing Kansas City Center
Tue 10:59:00 AM 39.0001 -89.9102 84° East  Level Estimated
Tue 10:59:53 AM 38.7475 -90.0150 89° East 280 322 10,200  Level Kansas City Center
Tue 11:00:00 AM 38.9558 -89.7816 114° Southeast  Level FlightAware Approximate
Tue 11:00:57 AM 38.7592 -89.9025 82° East 310 357 11,800  Level Kansas City Center
Tue 11:01:00 AM 39.0197 -89.6674 74° East  Level Estimated
Tue 11:01:57 AM 38.7769 -89.7739 80° East 356 410 14,200  Level Kansas City Center
Tue 11:03:01 AM 38.7875 -89.6250 85° East 375 432 16,800 2,286 Climbing Kansas City Center
Tue 11:04:03 AM 38.8025 -89.4722 83° East 402 463 19,000 1,902 Climbing Kansas City Center
Tue 11:05:04 AM 38.8219 -89.3286 80° East 409 471 20,700 1,645 Climbing Kansas City Center
Tue 11:06:07 AM 38.8442 -89.1658 80° East 429 494 22,400 1,694 Climbing Kansas City Center
Tue 11:07:08 AM 38.8656 -89.0114 80° East 439 505 24,200 1,488 Climbing Kansas City Center
Tue 11:08:12 AM 38.8864 -88.8636 80° East 450 518 25,500 1,296 Climbing Kansas City Center
Tue 11:09:13 AM 38.9056 -88.7000 81° East 462 532 26,900 1,140 Climbing Kansas City Center
Tue 11:10:13 AM 38.9236 -88.5244 82° East 470 541 27,800 871 Climbing Kansas City Center
Tue 11:11:17 AM 38.9564 -88.3542 76° East 483 556 28,700 576 Climbing Kansas City Center
Tue 11:12:18 AM 39.0072 -88.1861 69° East 496 571 29,000 168 Climbing Kansas City Center
Tue 11:13:04 AM 39.0431 -88.0539 71° East 503 579 29,000 611 Level Indianapolis Center
Tue 11:14:06 AM 39.1053 -87.8503 68° East 505 581 30,100 1,258 Climbing Indianapolis Center
Tue 11:15:08 AM 39.1575 -87.6839 68° East 501 577 31,600 1,355 Climbing Indianapolis Center
Tue 11:16:10 AM 39.2097 -87.5253 67° East 493 567 32,900 677 Climbing Indianapolis Center
Tue 11:17:12 AM 39.2619 -87.3639 67° East 489 563 33,000 98 Climbing Indianapolis Center
Tue 11:18:13 AM 39.3136 -87.2017 68° East 491 565 33,100  Climbing Indianapolis Center
Tue 11:19:15 AM 39.3683 -87.0422 66° East 489 563 33,000 -48 Descending Indianapolis Center
Tue 11:20:17 AM 39.4636 -86.9206 45° Northeast 484 557 33,000  Level Indianapolis Center
Tue 11:21:19 AM 39.5836 -86.7839 41° Northeast 479 551 33,000  Level Indianapolis Center
Tue 11:22:21 AM 39.6819 -86.6661 43° Northeast 479 551 33,000  Level Indianapolis Center
Tue 11:23:22 AM 39.7836 -86.5519 41° Northeast 479 551 33,000  Level Indianapolis Center
Tue 11:24:24 AM 39.8869 -86.4344 41° Northeast 482 555 33,000  Level Indianapolis Center
Tue 11:25:26 AM 39.9906 -86.3194 40° Northeast 482 555 33,000  Level Indianapolis Center
Tue 11:26:28 AM 40.0914 -86.2058 41° Northeast 479 551 33,000 -541 Level Indianapolis Center
Tue 11:27:28 AM 40.1911 -86.0892 42° Northeast 480 552 31,900 -1,131 Descending Chicago Center
Tue 11:28:30 AM 40.2917 -85.9750 41° Northeast 478 550 30,700 -1,210 Descending Chicago Center
Tue 11:29:32 AM 40.3950 -85.8589 41° Northeast 487 560 29,400 -1,355 Descending Chicago Center
Tue 11:30:34 AM 40.5194 -85.7211 40° Northeast 488 562 27,900 -1,210 Descending Chicago Center
Tue 11:31:36 AM 40.6239 -85.6119 38° Northeast 485 558 26,900 -1,016 Descending Chicago Center
Tue 11:32:38 AM 40.7200 -85.5072 40° Northeast 482 555 25,800 -1,355 Descending Chicago Center
Tue 11:33:40 AM 40.8139 -85.3933 43° Northeast 467 537 24,100 -1,306 Descending Chicago Center
Tue 11:34:42 AM 40.9203 -85.2642 43° Northeast 440 506 23,100 -927 Descending Chicago Center
Tue 11:35:43 AM 41.0086 -85.1594 42° Northeast 431 496 22,200 -1,415 Descending Chicago Center
Tue 11:36:45 AM 41.0947 -85.0475 44° Northeast 435 501 20,200 -1,548 Descending Chicago Center
Tue 11:37:47 AM 41.1861 -84.9575 37° Northeast 418 481 19,000 -581 Descending Chicago Center
Tue 11:38:49 AM 41.2797 -84.8711 35° Northeast 413 475 19,000  Level Chicago Center
Tue 11:39:51 AM 41.3956 -84.7636 35° Northeast 424 488 19,000  Level Chicago Center
Tue 11:40:53 AM 41.4928 -84.6747 34° Northeast 426 490 19,000  Level Chicago Center
Tue 11:41:55 AM 41.5842 -84.5767 39° Northeast 426 490 19,000  Level Chicago Center
Tue 11:42:58 AM 41.6494 -84.4453 56° Northeast 433 498 19,000 -720 Level Chicago Center
Tue 11:44:00 AM 41.7050 -84.3086 61° Northeast 422 486 17,500 -2,283 Descending Chicago Center
Tue 11:44:30 AM 41.7419 -84.2203 61° Northeast 395 455 15,500 -3,195 Descending Cleveland Center
Tue 11:45:17 AM 41.7744 -84.1469 59° Northeast 395 455 13,400 -2,712 Descending Cleveland Center
Tue 11:45:43 AM 41.8103 -84.0822 53° Northeast 385 443 12,200 -1,258 Descending Cleveland Center
Tue 11:46:19 AM 41.8458 -84.0053 58° Northeast 384 442 12,100 -98 Descending Cleveland Center
Tue 11:46:44 AM 41.8753 -83.9575 50° Northeast 383 441 12,100  Level Cleveland Center
Tue 11:47:20 AM 41.9175 -83.9028 44° Northeast 381 438 12,100  Level Cleveland Center
Tue 11:47:50 AM 41.9572 -83.8544 42° Northeast 373 429 12,100  Level Cleveland Center
Tue 11:48:22 AM 41.9917 -83.8081 45° Northeast 371 427 12,100  Level Cleveland Center
Tue 11:48:45 AM 42.0272 -83.7692 39° Northeast 368 423 12,100  Level Cleveland Center
Tue 11:49:24 AM 42.0683 -83.7172 43° Northeast 367 422 12,100  Level Cleveland Center
Tue 11:49:46 AM 42.1017 -83.6789 40° Northeast 365 420 12,100  Level Cleveland Center
Tue 11:50:25 AM 42.1433 -83.6267 43° Northeast 365 420 12,100  Level Cleveland Center
Tue 11:50:46 AM 42.1761 -83.5883 41° Northeast 362 417 12,100 -581 Level Cleveland Center
Tue 11:51:27 AM 42.2200 -83.5311 44° Northeast 353 406 11,500 -1,075 Descending Cleveland Center
Tue 11:51:53 AM 42.2544 -83.4981 35° Northeast 301 346 10,900 -1,452 Descending Cleveland Center
Tue 11:52:29 AM 42.2889 -83.4700 31° Northeast 310 357 10,000 -1,475 Descending Cleveland Center
Tue 11:52:54 AM 42.3231 -83.4514 22° Northeast 265 305 9,400 -1,475 Descending Cleveland Center
Tue 11:53:30 AM 42.3567 -83.4272 28° Northeast 272 313 8,500 -2,222 Descending Cleveland Center
Tue 11:53:48 AM 42.3806 -83.4144 22° Northeast 239 275 7,400 -2,516 Descending Cleveland Center
Tue 11:54:32 AM 42.4144 -83.3881 30° Northeast 236 272 5,900 -2,618 Descending Cleveland Center
Tue 11:54:43 AM 42.4242 -83.3642 61° Northeast 241 277 5,000 -1,839 Descending Cleveland Center
Tue 11:55:34 AM 42.4100 -83.3097 109° East 227 261 4,000 -1,279 Descending Cleveland Center
Tue 11:55:44 AM 42.3961 -83.2950 142° Southeast 192 221 3,700 -484 Descending Cleveland Center
Tue 11:56:36 AM 42.3633 -83.2892 173° South 192 221 3,500 -300 Descending Cleveland Center
Tue 11:56:44 AM 42.3458 -83.2936 191° South 187 215 3,400 -885 Descending Cleveland Center
Tue 11:57:37 AM 42.3111 -83.3025 191° South 190 219 2,600 -1,082 Descending Cleveland Center
Tue 11:57:45 AM 42.2961 -83.3150 212° Southwest 173 199 2,300 -968 Descending Cleveland Center
Tue 11:58:39 AM 42.2642 -83.3361 206° Southwest 163 188 1,600 -787 Descending Cleveland Center
Tue 11:58:46 AM 42.2606 -83.3408 224° Southwest 142 163 1,500 -677 Descending Cleveland Center
Tue 11:59:41 AM 42.2300 -83.3622 207° Southwest 147 169 900 -655 Descending Cleveland Center

Login

Don't have an account? Register now (free) for customized features, flight alerts, and more!